createdAt,value
2018-05-05T00:02:22.833Z,2.80
2018-05-05T00:04:49.107Z,3.53
2018-05-05T00:07:15.287Z,3.20
2018-05-05T00:09:41.589Z,2.93
2018-05-05T00:12:08.654Z,3.07
2018-05-05T00:14:35.597Z,3.40
2018-05-05T00:17:02.552Z,3.17
2018-05-05T00:19:28.698Z,3.33
2018-05-05T00:21:54.953Z,2.87
2018-05-05T00:24:22.741Z,3.17
2018-05-05T00:26:49.669Z,2.87
2018-05-05T00:29:17.347Z,2.83
2018-05-05T00:31:43.644Z,3.10
2018-05-05T00:34:09.893Z,2.83
2018-05-05T00:36:36.226Z,2.77
2018-05-05T00:39:02.472Z,2.83
2018-05-05T00:41:29.506Z,3.20
2018-05-05T00:43:56.584Z,2.80
2018-05-05T00:46:22.773Z,2.67
2018-05-05T00:48:49.859Z,3.10
2018-05-05T00:51:16.425Z,2.90
2018-05-05T00:53:42.591Z,2.90
2018-05-05T00:56:09.674Z,2.50
2018-05-05T00:58:35.974Z,2.97
2018-05-05T01:01:02.284Z,2.90
2018-05-05T01:03:29.225Z,3.53
2018-05-05T01:05:55.458Z,3.13
2018-05-05T01:08:21.657Z,2.40
2018-05-05T01:10:47.916Z,2.63
2018-05-05T01:13:14.223Z,2.37
2018-05-05T01:15:40.434Z,2.80
2018-05-05T01:18:06.604Z,2.53
2018-05-05T01:20:33.652Z,2.63
2018-05-05T01:23:00.637Z,2.77
2018-05-05T01:25:32.877Z,2.43
2018-05-05T01:27:59.174Z,3.40
2018-05-05T01:30:25.330Z,2.77
2018-05-05T01:32:52.135Z,2.37
2018-05-05T01:35:19.057Z,2.87
2018-05-05T01:37:45.345Z,2.43
2018-05-05T01:40:11.658Z,3.00
2018-05-05T01:42:38.673Z,2.10
2018-05-05T01:45:04.994Z,2.60
2018-05-05T01:47:31.253Z,2.63
2018-05-05T01:49:58.172Z,2.20
2018-05-05T01:52:26.039Z,2.80
2018-05-05T01:54:53.743Z,2.70
2018-05-05T01:57:20.087Z,2.47
2018-05-05T01:59:46.363Z,2.13
2018-05-05T02:02:13.434Z,2.10
2018-05-05T02:04:40.424Z,2.40
2018-05-05T02:07:06.720Z,2.47
2018-05-05T02:09:33.100Z,2.17
2018-05-05T02:11:59.284Z,2.20
2018-05-05T02:14:25.471Z,2.00
2018-05-05T02:16:53.233Z,2.00
2018-05-05T02:19:19.434Z,2.47
2018-05-05T02:21:45.868Z,2.20
2018-05-05T02:24:12.197Z,2.40
2018-05-05T02:26:38.453Z,1.70
2018-05-05T02:29:05.578Z,2.27
2018-05-05T02:31:31.903Z,2.50
2018-05-05T02:33:58.999Z,2.57
2018-05-05T02:36:25.242Z,2.33
2018-05-05T02:38:51.437Z,2.10
2018-05-05T02:41:18.448Z,2.23
2018-05-05T02:43:44.625Z,2.23
2018-05-05T02:46:11.641Z,2.57
2018-05-05T02:48:37.873Z,1.67
2018-05-05T02:51:04.185Z,1.73
2018-05-05T02:53:30.550Z,2.20
2018-05-05T02:55:57.473Z,2.87
2018-05-05T02:58:23.693Z,2.17
2018-05-05T03:00:51.551Z,2.50
2018-05-05T03:03:17.823Z,2.00
2018-05-05T03:05:44.029Z,2.20
2018-05-05T03:08:11.050Z,2.00
2018-05-05T03:10:37.481Z,2.00
2018-05-05T03:13:03.832Z,2.53
2018-05-05T03:15:30.899Z,1.63
2018-05-05T03:17:57.896Z,1.80
2018-05-05T03:20:24.095Z,1.90
2018-05-05T03:22:50.360Z,1.83
2018-05-05T03:25:17.398Z,2.20
2018-05-05T03:27:43.745Z,1.90
2018-05-05T03:30:09.944Z,2.00
2018-05-05T03:32:36.194Z,2.10
2018-05-05T03:35:03.134Z,2.40
2018-05-05T03:37:30.216Z,1.80
2018-05-05T03:39:56.432Z,1.43
2018-05-05T03:42:23.356Z,2.40
2018-05-05T03:44:50.340Z,2.00
2018-05-05T03:47:16.614Z,2.27
2018-05-05T03:49:42.832Z,1.73
2018-05-05T03:52:08.990Z,2.07
2018-05-05T03:54:35.392Z,2.00
2018-05-05T03:57:01.603Z,2.00
2018-05-05T03:59:40.149Z,1.93
2018-05-05T04:08:18.351Z,1.70
2018-05-05T04:10:44.627Z,1.90
2018-05-05T04:13:10.791Z,2.07
2018-05-05T04:15:37.111Z,2.00
2018-05-05T04:18:04.085Z,1.90
2018-05-05T04:20:30.440Z,1.70
2018-05-05T04:22:56.868Z,2.20
2018-05-05T04:25:23.224Z,1.50
2018-05-05T04:27:49.638Z,2.17
2018-05-05T04:30:15.902Z,1.70
2018-05-05T04:32:42.930Z,1.60
2018-05-05T04:35:09.182Z,2.20
2018-05-05T04:37:35.544Z,1.80
2018-05-05T04:40:01.750Z,2.40
2018-05-05T04:42:28.146Z,2.10
2018-05-05T04:44:55.196Z,1.70
2018-05-05T04:47:22.179Z,2.03
2018-05-05T04:49:48.400Z,2.03
2018-05-05T04:52:14.735Z,2.40
2018-05-05T04:54:41.036Z,1.73
2018-05-05T04:57:07.291Z,1.50
2018-05-05T04:59:33.528Z,2.13
2018-05-05T05:01:59.995Z,2.13
2018-05-05T05:04:26.193Z,2.40
2018-05-05T05:06:52.342Z,2.00
2018-05-05T05:09:18.598Z,2.27
2018-05-05T05:11:45.491Z,1.97
2018-05-05T05:14:11.792Z,1.77
2018-05-05T05:16:38.112Z,2.20
2018-05-05T05:19:04.473Z,1.77
2018-05-05T05:21:30.930Z,2.40
2018-05-05T05:23:57.141Z,2.40
2018-05-05T05:26:23.352Z,1.97
2018-05-05T05:28:49.715Z,2.27
2018-05-05T05:31:15.985Z,1.90
2018-05-05T05:33:42.190Z,2.97
2018-05-05T05:36:08.647Z,2.67
2018-05-05T05:38:35.133Z,2.50
2018-05-05T05:41:01.439Z,2.97
2018-05-05T05:43:27.691Z,2.90
2018-05-05T05:45:55.469Z,3.30
2018-05-05T05:48:21.797Z,3.47
2018-05-05T05:50:48.932Z,2.90
2018-05-05T05:53:15.389Z,3.37
2018-05-05T05:55:43.440Z,2.50
2018-05-05T05:58:09.863Z,3.30
2018-05-05T06:00:36.817Z,3.20
2018-05-05T06:03:03.807Z,3.00
2018-05-05T06:05:30.171Z,3.57
2018-05-05T06:07:56.612Z,2.77
2018-05-05T06:10:22.985Z,2.67
2018-05-05T06:12:49.933Z,2.50
2018-05-05T06:15:16.244Z,2.90
2018-05-05T06:17:43.242Z,2.60
2018-05-05T06:20:09.465Z,3.17
2018-05-05T06:22:35.695Z,3.10
2018-05-05T06:25:02.139Z,3.07
2018-05-05T06:27:28.320Z,3.00
2018-05-05T06:29:54.563Z,2.63
2018-05-05T06:32:20.725Z,2.90
2018-05-05T06:34:46.993Z,2.90
2018-05-05T06:37:14.046Z,3.00
2018-05-05T06:39:41.098Z,2.57
2018-05-05T06:42:07.299Z,2.80
2018-05-05T06:44:34.434Z,3.43
2018-05-05T06:47:00.708Z,2.53
2018-05-05T06:49:26.972Z,2.90
2018-05-05T06:51:53.225Z,7.50
2018-05-05T06:54:20.316Z,3.20
2018-05-05T06:56:46.675Z,3.30
2018-05-05T06:59:12.862Z,2.80
2018-05-05T07:01:39.133Z,2.90
2018-05-05T07:04:06.813Z,2.80
2018-05-05T07:06:35.385Z,3.47
2018-05-05T07:09:01.608Z,4.10
2018-05-05T07:11:28.046Z,3.00
2018-05-05T07:13:54.468Z,3.20
2018-05-05T07:16:20.623Z,3.40
2018-05-05T07:18:47.726Z,3.10
2018-05-05T07:21:13.975Z,3.00
2018-05-05T07:23:41.222Z,3.53
2018-05-05T07:26:07.507Z,3.50
2018-05-05T07:28:33.686Z,4.10
2018-05-05T07:31:00.093Z,3.50
2018-05-05T07:33:26.358Z,3.60
2018-05-05T07:35:53.945Z,3.90
2018-05-05T07:38:20.314Z,3.30
2018-05-05T07:40:47.065Z,3.20
2018-05-05T07:43:13.321Z,3.97
2018-05-05T07:45:39.610Z,3.57
2018-05-05T07:48:05.888Z,4.27
2018-05-05T07:50:32.209Z,3.50
2018-05-05T07:52:59.167Z,4.00
2018-05-05T07:55:25.472Z,4.20
2018-05-05T07:57:52.996Z,3.63
2018-05-05T08:00:19.301Z,2.97
2018-05-05T08:02:45.553Z,3.37
2018-05-05T08:05:11.749Z,3.50
2018-05-05T08:07:38.063Z,3.40
2018-05-05T08:10:04.303Z,3.43
2018-05-05T08:12:30.691Z,3.67
2018-05-05T08:14:56.954Z,3.20
2018-05-05T08:17:23.171Z,3.37
2018-05-05T08:19:50.099Z,3.20
2018-05-05T08:22:17.074Z,2.87
2018-05-05T08:24:43.747Z,2.90
2018-05-05T08:27:10.046Z,2.80
2018-05-05T08:29:36.917Z,2.70
2018-05-05T08:32:03.655Z,2.80
2018-05-05T08:34:29.988Z,2.40
2018-05-05T08:36:57.528Z,3.10
2018-05-05T08:39:24.716Z,2.40
2018-05-05T08:41:51.243Z,2.30
2018-05-05T08:44:17.597Z,2.20
2018-05-05T08:46:44.550Z,2.33
2018-05-05T08:49:12.083Z,2.00
2018-05-05T08:51:38.394Z,2.57
2018-05-05T08:54:04.788Z,2.53
2018-05-05T08:56:33.714Z,2.57
2018-05-05T08:59:00.463Z,2.70
2018-05-05T09:01:28.881Z,2.70
2018-05-05T09:03:56.283Z,2.37
2018-05-05T09:06:23.902Z,2.70
2018-05-05T09:08:50.510Z,2.90
2018-05-05T09:11:17.732Z,2.57
2018-05-05T09:13:46.704Z,3.30
2018-05-05T09:16:15.139Z,3.07
2018-05-05T09:18:43.383Z,2.87
2018-05-05T09:21:11.545Z,3.00
2018-05-05T09:23:37.755Z,3.10
2018-05-05T09:26:04.428Z,2.83
2018-05-05T09:28:31.706Z,3.23
2018-05-05T09:30:59.855Z,2.70
2018-05-05T09:33:27.679Z,2.30
2018-05-05T09:35:53.870Z,3.13
2018-05-05T09:38:22.847Z,3.23
2018-05-05T09:40:49.498Z,3.53
2018-05-05T09:43:19.557Z,3.60
2018-05-05T09:45:46.901Z,3.67
2018-05-05T09:48:13.325Z,3.20
2018-05-05T09:50:40.549Z,3.77
2018-05-05T09:53:07.734Z,3.30
2018-05-05T09:55:35.372Z,3.40
2018-05-05T09:58:01.797Z,3.30
2018-05-05T10:00:30.277Z,3.00
2018-05-05T10:02:56.781Z,3.20
2018-05-05T10:05:22.994Z,3.47
2018-05-05T10:07:49.446Z,3.10
2018-05-05T10:10:16.998Z,3.00
2018-05-05T10:12:45.353Z,2.50
2018-05-05T10:15:12.224Z,3.43
2018-05-05T10:17:38.657Z,3.20
2018-05-05T10:20:05.963Z,2.70
2018-05-05T10:22:34.391Z,2.70
2018-05-05T10:25:03.372Z,2.70
2018-05-05T10:27:31.376Z,2.70
2018-05-05T10:29:57.721Z,2.47
2018-05-05T10:32:27.021Z,3.20
2018-05-05T10:34:53.368Z,3.70
2018-05-05T10:37:20.741Z,3.50
2018-05-05T10:39:48.618Z,3.60
2018-05-05T10:42:17.589Z,3.30
2018-05-05T10:44:43.862Z,3.10
2018-05-05T10:47:10.210Z,3.10
2018-05-05T10:49:36.650Z,3.50
2018-05-05T10:52:05.355Z,3.63
2018-05-05T10:54:31.731Z,3.50
2018-05-05T10:56:58.979Z,3.10
2018-05-05T10:59:25.372Z,3.30
2018-05-05T11:01:51.851Z,3.30
2018-05-05T11:04:18.136Z,3.23
2018-05-05T11:06:44.318Z,2.97
2018-05-05T11:09:11.354Z,3.10
2018-05-05T11:11:38.374Z,3.63
2018-05-05T11:14:04.695Z,3.10
2018-05-05T11:16:31.071Z,3.20
2018-05-05T11:18:57.320Z,3.33
2018-05-05T11:21:23.697Z,3.47
2018-05-05T11:23:50.071Z,3.20
2018-05-05T11:26:16.384Z,3.33
2018-05-05T11:28:43.498Z,3.40
2018-05-05T11:31:09.937Z,3.60
2018-05-05T11:33:36.295Z,3.97
2018-05-05T11:36:03.412Z,3.87
2018-05-05T11:38:29.711Z,3.70
2018-05-05T11:40:56.003Z,3.77
2018-05-05T11:43:23.139Z,2.93
2018-05-05T11:45:49.313Z,3.60
2018-05-05T11:48:15.615Z,3.37
2018-05-05T11:50:41.936Z,3.27
2018-05-05T11:53:08.346Z,2.70
2018-05-05T11:55:34.529Z,2.97
2018-05-05T11:58:00.788Z,3.67
2018-05-05T12:00:27.197Z,3.50
2018-05-05T12:02:53.843Z,3.00
2018-05-05T12:05:20.066Z,2.60
2018-05-05T12:07:46.418Z,3.53
2018-05-05T12:10:12.711Z,3.90
2018-05-05T12:12:38.874Z,4.10
2018-05-05T12:15:05.305Z,3.77
2018-05-05T12:17:31.675Z,3.50
2018-05-05T12:19:58.019Z,4.57
2018-05-05T12:22:24.303Z,4.07
2018-05-05T12:24:50.676Z,4.20
2018-05-05T12:27:17.691Z,4.43
2018-05-05T12:29:44.289Z,3.93
2018-05-05T12:32:10.678Z,4.53
2018-05-05T12:34:37.618Z,3.53
2018-05-05T12:37:04.628Z,4.30
2018-05-05T12:39:30.916Z,3.93
2018-05-05T12:41:57.159Z,4.37
2018-05-05T12:44:23.386Z,4.40
2018-05-05T12:46:49.675Z,4.60
2018-05-05T12:49:16.675Z,3.77
2018-05-05T12:51:43.143Z,4.40
2018-05-05T12:54:09.501Z,5.10
2018-05-05T12:56:36.807Z,3.87
2018-05-05T12:59:03.199Z,3.83
2018-05-05T13:01:29.570Z,5.20
2018-05-05T13:03:55.860Z,4.70
2018-05-05T13:06:22.366Z,4.10
2018-05-05T13:08:49.500Z,3.90
2018-05-05T13:11:15.861Z,3.40
2018-05-05T13:13:43.386Z,4.57
2018-05-05T13:16:09.696Z,4.17
2018-05-05T13:18:36.167Z,4.70
2018-05-05T13:21:03.457Z,4.73
2018-05-05T13:23:30.024Z,4.37
2018-05-05T13:25:56.393Z,4.30
2018-05-05T13:28:23.877Z,4.60
2018-05-05T13:30:50.142Z,4.40
2018-05-05T13:33:16.445Z,4.27
2018-05-05T13:35:42.806Z,5.17
2018-05-05T13:38:08.990Z,3.67
2018-05-05T13:40:35.361Z,4.70
2018-05-05T13:43:01.566Z,4.10
2018-05-05T13:45:27.783Z,4.57
2018-05-05T13:47:54.135Z,5.07
2018-05-05T13:50:20.354Z,4.60
2018-05-05T13:52:46.851Z,4.30
2018-05-05T13:55:13.132Z,4.37
2018-05-05T13:57:39.569Z,3.63
2018-05-05T14:00:05.809Z,3.77
2018-05-05T14:02:32.223Z,4.37
2018-05-05T14:04:58.496Z,4.53
2018-05-05T14:07:25.441Z,4.47
2018-05-05T14:09:52.090Z,3.90
2018-05-05T14:12:18.426Z,3.87
2018-05-05T14:14:44.912Z,4.00
2018-05-05T14:17:11.250Z,4.30
2018-05-05T14:19:37.471Z,3.80
2018-05-05T14:22:03.633Z,3.10
2018-05-05T14:24:29.903Z,4.00
2018-05-05T14:26:56.105Z,3.70
2018-05-05T14:29:22.448Z,3.57
2018-05-05T14:31:49.395Z,3.27
2018-05-05T14:34:15.681Z,4.00
2018-05-05T14:36:43.069Z,3.53
2018-05-05T14:39:09.387Z,3.50
2018-05-05T14:41:35.828Z,3.47
2018-05-05T14:44:02.008Z,3.20
2018-05-05T14:46:28.213Z,3.03
2018-05-05T14:48:54.545Z,3.77
2018-05-05T14:51:22.592Z,3.90
2018-05-05T14:53:48.876Z,3.90
2018-05-05T14:56:16.017Z,3.70
2018-05-05T14:58:43.519Z,4.23
2018-05-05T15:01:09.822Z,3.73
2018-05-05T15:03:36.225Z,3.97
2018-05-05T15:06:02.548Z,3.90
2018-05-05T15:08:28.843Z,3.80
2018-05-05T15:10:55.350Z,4.50
2018-05-05T15:13:21.684Z,4.30
2018-05-05T15:15:47.953Z,4.83
2018-05-05T15:18:14.251Z,4.07
2018-05-05T15:20:40.540Z,4.10
2018-05-05T15:23:06.812Z,3.80
2018-05-05T15:25:33.296Z,3.93
2018-05-05T15:27:59.693Z,4.20
2018-05-05T15:30:26.624Z,4.60
2018-05-05T15:32:53.607Z,4.97
2018-05-05T15:35:19.996Z,5.07
2018-05-05T15:37:46.257Z,4.60
2018-05-05T15:40:12.695Z,5.70
2018-05-05T15:42:38.943Z,3.83
2018-05-05T15:45:05.255Z,4.00
2018-05-05T15:47:31.675Z,4.60
2018-05-05T15:49:58.001Z,4.13
2018-05-05T15:52:24.194Z,4.20
2018-05-05T15:54:50.486Z,4.70
2018-05-05T15:57:16.722Z,4.70
2018-05-05T15:59:43.142Z,5.70
2018-05-05T16:02:09.535Z,4.40
2018-05-05T16:04:36.267Z,4.60
2018-05-05T16:07:02.620Z,4.97
2018-05-05T16:09:28.840Z,7.00
2018-05-05T16:11:55.168Z,4.60
2018-05-05T16:14:21.621Z,6.03
2018-05-05T16:16:48.208Z,5.73
2018-05-05T16:19:14.536Z,7.70
2018-05-05T16:21:40.878Z,6.33
2018-05-05T16:24:07.033Z,6.10
2018-05-05T16:26:33.931Z,5.87
2018-05-05T16:29:00.914Z,5.70
2018-05-05T16:31:27.256Z,5.30
2018-05-05T16:33:53.484Z,5.23
2018-05-05T16:36:19.817Z,4.90
2018-05-05T16:38:46.007Z,5.70
2018-05-05T16:41:12.318Z,5.63
2018-05-05T16:43:39.483Z,5.17
2018-05-05T16:46:05.752Z,5.27
2018-05-05T16:48:32.075Z,5.30
2018-05-05T16:50:58.270Z,5.80
2018-05-05T16:53:24.489Z,5.17
2018-05-05T16:55:50.863Z,5.00
2018-05-05T16:58:17.136Z,5.00
2018-05-05T17:00:44.111Z,10.20
2018-05-05T17:03:10.386Z,4.87
2018-05-05T17:05:36.519Z,6.23
2018-05-05T17:08:03.636Z,5.10
2018-05-05T17:10:29.834Z,5.00
2018-05-05T17:12:56.307Z,4.80
2018-05-05T17:15:22.543Z,4.50
2018-05-05T17:17:48.695Z,4.50
2018-05-05T17:20:15.668Z,3.93
2018-05-05T17:22:42.093Z,4.33
2018-05-05T17:25:08.437Z,3.97
2018-05-05T17:27:34.589Z,3.60
2018-05-05T17:30:01.157Z,3.80
2018-05-05T17:32:28.268Z,3.50
2018-05-05T17:34:54.711Z,3.70
2018-05-05T17:37:21.027Z,3.20
2018-05-05T17:39:47.363Z,3.93
2018-05-05T17:42:13.642Z,3.93
2018-05-05T17:44:40.760Z,3.63
2018-05-05T17:47:08.007Z,3.60
2018-05-05T17:49:34.296Z,3.60
2018-05-05T17:52:00.655Z,3.00
2018-05-05T17:54:26.873Z,2.80
2018-05-05T17:56:53.251Z,2.80
2018-05-05T17:59:19.533Z,2.90
2018-05-05T18:01:45.786Z,2.60
2018-05-05T18:04:12.124Z,2.63
2018-05-05T18:06:38.481Z,3.10
2018-05-05T18:09:05.245Z,2.37
2018-05-05T18:11:31.562Z,3.50
2018-05-05T18:13:57.970Z,3.73
2018-05-05T18:16:24.901Z,4.17
2018-05-05T18:18:52.017Z,2.70
2018-05-05T18:21:18.565Z,2.90
2018-05-05T18:23:44.895Z,2.57
2018-05-05T18:26:11.561Z,2.37
2018-05-05T18:28:38.670Z,2.67
2018-05-05T18:31:05.019Z,2.77
2018-05-05T18:33:31.226Z,3.23
2018-05-05T18:35:57.500Z,3.17
2018-05-05T18:38:23.820Z,2.50
2018-05-05T18:40:50.988Z,3.07
2018-05-05T18:43:18.248Z,2.10
2018-05-05T18:45:44.555Z,2.33
2018-05-05T18:48:11.541Z,2.40
2018-05-05T18:50:37.773Z,2.43
2018-05-05T18:53:04.165Z,2.57
2018-05-05T18:55:30.411Z,2.67
2018-05-05T18:57:56.609Z,2.40
2018-05-05T19:00:23.749Z,2.83
2018-05-05T19:02:50.163Z,2.57
2018-05-05T19:05:16.506Z,3.40
2018-05-05T19:07:42.736Z,2.77
2018-05-05T19:10:09.039Z,3.00
2018-05-05T19:12:35.672Z,3.00
2018-05-05T19:15:02.058Z,2.50
2018-05-05T19:17:28.336Z,2.20
2018-05-05T19:19:54.640Z,2.60
2018-05-05T19:22:21.021Z,2.57
2018-05-05T19:24:48.576Z,2.40
2018-05-05T19:27:14.825Z,1.90
2018-05-05T19:29:41.753Z,2.40
2018-05-05T19:32:08.156Z,2.13
2018-05-05T19:34:34.420Z,2.40
2018-05-05T19:37:01.395Z,2.50
2018-05-05T19:39:27.786Z,2.53
2018-05-05T19:41:55.399Z,3.10
2018-05-05T19:44:21.659Z,2.97
2018-05-05T19:46:48.632Z,2.80
2018-05-05T19:49:14.913Z,2.67
2018-05-05T19:51:41.388Z,3.10
2018-05-05T19:54:08.504Z,2.37
2018-05-05T19:56:36.332Z,2.67
2018-05-05T19:59:02.714Z,2.50
2018-05-05T20:01:28.961Z,3.00
2018-05-05T20:03:56.191Z,2.60
2018-05-05T20:06:22.469Z,2.37
2018-05-05T20:08:48.731Z,2.63
2018-05-05T20:11:15.436Z,2.53
2018-05-05T20:13:41.738Z,2.40
2018-05-05T20:16:08.153Z,2.60
2018-05-05T20:18:34.508Z,2.60
2018-05-05T20:21:03.191Z,2.50
2018-05-05T20:23:30.180Z,2.70
2018-05-05T20:25:56.461Z,3.30
2018-05-05T20:28:23.885Z,2.60
2018-05-05T20:30:51.024Z,3.40
2018-05-05T20:33:17.290Z,3.23
2018-05-05T20:35:44.241Z,3.60
2018-05-05T20:38:11.307Z,3.07
2018-05-05T20:40:37.711Z,3.87
2018-05-05T20:43:04.756Z,3.90
2018-05-05T20:45:31.683Z,3.43
2018-05-05T20:47:58.077Z,4.27
2018-05-05T20:50:24.477Z,3.60
2018-05-05T20:52:50.771Z,4.00
2018-05-05T20:55:17.411Z,3.80
2018-05-05T20:57:44.372Z,4.20
2018-05-05T21:00:11.459Z,4.80
2018-05-05T21:02:37.893Z,4.90
2018-05-05T21:05:04.211Z,4.43
2018-05-05T21:07:30.483Z,4.60
2018-05-05T21:09:56.933Z,4.10
2018-05-05T21:12:24.027Z,4.00
2018-05-05T21:14:50.343Z,5.20
2018-05-05T21:17:16.575Z,4.90
2018-05-05T21:19:43.166Z,4.30
2018-05-05T21:22:10.193Z,4.30
2018-05-05T21:24:36.637Z,4.47
2018-05-05T21:27:03.929Z,3.90
2018-05-05T21:29:30.259Z,4.20
2018-05-05T21:31:56.796Z,4.40
2018-05-05T21:34:23.182Z,3.20
2018-05-05T21:36:51.582Z,3.50
2018-05-05T21:39:18.941Z,3.70
2018-05-05T21:41:45.168Z,3.70
2018-05-05T21:44:12.277Z,3.60
2018-05-05T21:46:38.598Z,4.00
2018-05-05T21:49:05.149Z,4.17
2018-05-05T21:51:31.372Z,4.60
2018-05-05T21:53:57.598Z,4.10
2018-05-05T21:56:23.940Z,4.97
2018-05-05T21:58:50.350Z,4.70
2018-05-05T22:01:16.797Z,4.50
2018-05-05T22:03:42.970Z,3.60
2018-05-05T22:06:10.068Z,3.53
2018-05-05T22:08:36.176Z,3.93
2018-05-05T22:11:02.536Z,3.83
2018-05-05T22:13:29.176Z,3.70
2018-05-05T22:15:55.909Z,3.73
2018-05-05T22:18:22.950Z,3.13
2018-05-05T22:20:49.329Z,4.17
2018-05-05T22:23:15.545Z,3.93
2018-05-05T22:25:42.701Z,4.40
2018-05-05T22:28:08.983Z,4.20
2018-05-05T22:30:35.305Z,4.00
2018-05-05T22:33:01.598Z,4.03
2018-05-05T22:35:27.868Z,4.50
2018-05-05T22:37:54.375Z,4.40
2018-05-05T22:40:20.709Z,3.60
2018-05-05T22:42:46.936Z,4.03
2018-05-05T22:45:14.529Z,3.63
2018-05-05T22:47:40.727Z,4.17
2018-05-05T22:50:07.007Z,5.07
2018-05-05T22:52:34.218Z,4.50
2018-05-05T22:55:00.558Z,3.20
2018-05-05T22:57:26.982Z,3.80
2018-05-05T22:59:53.448Z,3.47
2018-05-05T23:02:20.393Z,3.90
2018-05-05T23:04:47.820Z,3.60
2018-05-05T23:07:14.153Z,3.70
2018-05-05T23:09:41.226Z,3.70
2018-05-05T23:12:08.437Z,3.83
2018-05-05T23:14:34.880Z,3.50
2018-05-05T23:17:01.858Z,3.77
2018-05-05T23:19:28.835Z,3.90
2018-05-05T23:21:55.198Z,3.87
2018-05-05T23:24:21.487Z,3.60
2018-05-05T23:26:47.974Z,3.57
2018-05-05T23:29:14.248Z,3.43
2018-05-05T23:31:40.660Z,3.43
2018-05-05T23:34:06.846Z,3.77
2018-05-05T23:36:34.772Z,3.13
2018-05-05T23:39:01.256Z,3.10
2018-05-05T23:41:27.493Z,4.50
2018-05-05T23:43:54.428Z,3.80
2018-05-05T23:46:20.847Z,3.97
2018-05-05T23:48:47.107Z,3.23
2018-05-05T23:51:14.221Z,3.07
2018-05-05T23:53:40.501Z,3.50
2018-05-05T23:56:07.035Z,3.30
2018-05-05T23:58:33.415Z,3.30
